Terminal Aerodrome Forecast
Issued by NWS

Home | Current Version | Previous Version | Text Only | Print | Product List | Glossary On
Versions: 1 2 3 4 5 6 7 8 9 10 11 12 13 14 15 16 17 18 19 20 21 22 23 24 25 26 27 28 29 30 31
489
FTUS43 KBIS 152327
TAFJMS
TAF
KJMS 152327Z 1600/1624 17005KT P6SM OVC050
     FM161100 30006KT P6SM OVC030
     FM161300 31007KT P6SM OVC015
     FM161900 32009KT P6SM BKN020
     FM162100 32008KT P6SM BKN040=

USA.gov is the U.S. government's official web portal to all federal, state and local government web resources and services.